Jonni Ritscher — A8JT7 — position and weather

sailwx.info

Track history (hours):
 
Tides and Currents Weather Stations Pressure Air Temp Water Temp Dewpoint Dewpoint Depression Visibility Wind Speed Wind Dir Waves Ship Positions

Jonni Ritscher

Last reported at 2015-May-22 08:23 UTC. Time now 2015-May-23 10:25 UTC.
Position N 37°22' W 000°05'.

Length 178 m; draft 8.7 m.

Type: Cargo ship. MMSI: 636091136.

Date/timePositionNaut miles runAvg speedWind from/ knotsBaromVisibWave heightAir tempDewpointWater temp
2015-May-22 08:23N 37°22' W 000°05'1012.0
2015-May-22 07:32N 37°17' W 000°16'2712.8
2015-May-22 05:27N 37°02' W 000°44'910.2
2015-May-22 04:33N 36°57' W 000°54'61 9.8
2015-May-21 22:18N 36°24' W 001°58'7 9.0
2015-May-21 21:28N 36°22' W 002°07'9 9.6
2015-May-21 20:33N 36°21' W 002°18'10 9.7
2015-May-21 19:32N 36°20' W 002°30'10 9.8
2015-May-21 18:32N 36°18' W 002°42'10 9.9
2015-May-21 17:30N 36°17' W 002°55'11110.7
2015-May-21 07:11N 36°01' W 005°10'1320.0
2015-May-21 06:31N 35°57' W 005°26'  
2015-May-18 17:30N 35°15' W 019°00'1411.7
2015-May-18 16:19N 35°15' W 019°17'2111.8
2015-May-18 14:32N 35°14' W 019°43'1611.4
2015-May-18 13:10N 35°13' W 020°02'2211.5
2015-May-18 11:14N 35°12' W 020°29'812.1
2015-May-18 10:34N 35°11' W 020°39'1211.9
2015-May-18 09:32N 35°11' W 020°54'1818.1
2015-May-18 08:33N 35°09' W 021°16'8311.8
2015-May-18 01:33N 35°05' W 022°57'2512.2
2015-May-17 23:33N 35°03' W 023°27'1212.0
2015-May-17 22:33N 35°03' W 023°41'1212.1
2015-May-17 21:33N 35°02' W 023°56'1211.9
2015-May-17 20:32N 35°01' W 024°11'1111.4
2015-May-17 19:33N 35°00' W 024°24'1111.3
2015-May-17 18:33N 34°60' W 024°38'1313.0
2015-May-17 17:33N 34°59' W 024°54'1313.1
2015-May-17 16:33N 34°58' W 025°10'1313.2
2015-May-17 15:33N 34°57' W 025°26'1313.1
2015-May-17 14:33N 34°57' W 025°42'1413.2
2015-May-17 13:32N 34°56' W 025°58'1313.2
2015-May-17 12:32N 34°55' W 026°14'1413.1
2015-May-17 11:30N 34°54' W 026°31'1613.1
2015-May-17 10:18N 34°53' W 026°50'1416.7
2015-May-17 09:29N 34°53' W 027°06'3015.7
2015-May-17 07:33N 34°51' W 027°44'  
Track history (hours):
 
Tides and Currents Weather Stations Pressure Air Temp Water Temp Dewpoint Dewpoint Depression Visibility Wind Speed Wind Dir Waves Ship Positions

Jonni Ritscher

Last reported at 2015-May-22 08:23 UTC. Time now 2015-May-23 10:25 UTC.
Position N 37°22' W 000°05'.

Length 178 m; draft 8.7 m.

Type: Cargo ship. MMSI: 636091136.

Date/timePositionNaut miles runAvg speedWind from/ knotsBaromVisibWave heightAir tempDewpointWater temp
2015-May-22 08:23N 37°22' W 000°05'1012.0
2015-May-22 07:32N 37°17' W 000°16'2712.8
2015-May-22 05:27N 37°02' W 000°44'910.2
2015-May-22 04:33N 36°57' W 000°54'61 9.8
2015-May-21 22:18N 36°24' W 001°58'7 9.0
2015-May-21 21:28N 36°22' W 002°07'9 9.6
2015-May-21 20:33N 36°21' W 002°18'10 9.7
2015-May-21 19:32N 36°20' W 002°30'10 9.8
2015-May-21 18:32N 36°18' W 002°42'10 9.9
2015-May-21 17:30N 36°17' W 002°55'11110.7
2015-May-21 07:11N 36°01' W 005°10'1320.0
2015-May-21 06:31N 35°57' W 005°26'  
2015-May-18 17:30N 35°15' W 019°00'1411.7
2015-May-18 16:19N 35°15' W 019°17'2111.8
2015-May-18 14:32N 35°14' W 019°43'1611.4
2015-May-18 13:10N 35°13' W 020°02'2211.5
2015-May-18 11:14N 35°12' W 020°29'812.1
2015-May-18 10:34N 35°11' W 020°39'1211.9
2015-May-18 09:32N 35°11' W 020°54'1818.1
2015-May-18 08:33N 35°09' W 021°16'8311.8
2015-May-18 01:33N 35°05' W 022°57'2512.2
2015-May-17 23:33N 35°03' W 023°27'1212.0
2015-May-17 22:33N 35°03' W 023°41'1212.1
2015-May-17 21:33N 35°02' W 023°56'1211.9
2015-May-17 20:32N 35°01' W 024°11'1111.4
2015-May-17 19:33N 35°00' W 024°24'1111.3
2015-May-17 18:33N 34°60' W 024°38'1313.0
2015-May-17 17:33N 34°59' W 024°54'1313.1
2015-May-17 16:33N 34°58' W 025°10'1313.2
2015-May-17 15:33N 34°57' W 025°26'1313.1
2015-May-17 14:33N 34°57' W 025°42'1413.2
2015-May-17 13:32N 34°56' W 025°58'1313.2
2015-May-17 12:32N 34°55' W 026°14'1413.1
2015-May-17 11:30N 34°54' W 026°31'1613.1
2015-May-17 10:18N 34°53' W 026°50'1416.7
2015-May-17 09:29N 34°53' W 027°06'3015.7
2015-May-17 07:33N 34°51' W 027°44'  

Dump ship's entire track history